sensor_id;sensor_type;location;lat;lon;timestamp;temperature;humidity
5870;DHT22;2961;47.702;9.410;2023-05-18T00:00:17;8.10;99.90
5870;DHT22;2961;47.702;9.410;2023-05-18T00:02:44;8.00;99.90
5870;DHT22;2961;47.702;9.410;2023-05-18T00:05:13;8.00;99.90
5870;DHT22;2961;47.702;9.410;2023-05-18T00:07:39;8.00;99.90
5870;DHT22;2961;47.702;9.410;2023-05-18T00:10:09;8.00;99.90
5870;DHT22;2961;47.702;9.410;2023-05-18T00:12:36;7.90;99.90
5870;DHT22;2961;47.702;9.410;2023-05-18T00:15:04;7.90;99.90
5870;DHT22;2961;47.702;9.410;2023-05-18T00:17:30;7.80;99.90
5870;DHT22;2961;47.702;9.410;2023-05-18T00:19:57;7.90;99.90
5870;DHT22;2961;47.702;9.410;2023-05-18T00:22:25;7.80;99.90
5870;DHT22;2961;47.702;9.410;2023-05-18T00:24:52;7.80;99.90
5870;DHT22;2961;47.702;9.410;2023-05-18T00:27:20;7.80;99.90
5870;DHT22;2961;47.702;9.410;2023-05-18T00:29:47;7.80;99.90
5870;DHT22;2961;47.702;9.410;2023-05-18T00:32:13;7.70;99.90
5870;DHT22;2961;47.702;9.410;2023-05-18T00:34:40;7.70;99.90
5870;DHT22;2961;47.702;9.410;2023-05-18T00:37:07;7.70;99.90
5870;DHT22;2961;47.702;9.410;2023-05-18T00:39:34;7.70;99.90
5870;DHT22;2961;47.702;9.410;2023-05-18T00:42:01;7.70;99.90
5870;DHT22;2961;47.702;9.410;2023-05-18T00:44:29;7.60;99.90
5870;DHT22;2961;47.702;9.410;2023-05-18T00:46:56;7.60;99.90
5870;DHT22;2961;47.702;9.410;2023-05-18T00:49:24;7.50;99.90
5870;DHT22;2961;47.702;9.410;2023-05-18T00:51:52;7.50;99.90
5870;DHT22;2961;47.702;9.410;2023-05-18T00:54:19;7.50;99.90
5870;DHT22;2961;47.702;9.410;2023-05-18T00:56:46;7.60;99.90
5870;DHT22;2961;47.702;9.410;2023-05-18T00:59:13;7.60;99.90
5870;DHT22;2961;47.702;9.410;2023-05-18T01:01:42;7.50;99.90
5870;DHT22;2961;47.702;9.410;2023-05-18T01:04:11;7.50;99.90
5870;DHT22;2961;47.702;9.410;2023-05-18T01:06:39;7.50;99.90
5870;DHT22;2961;47.702;9.410;2023-05-18T01:09:08;7.50;99.90
5870;DHT22;2961;47.702;9.410;2023-05-18T01:11:47;7.50;99.90
5870;DHT22;2961;47.702;9.410;2023-05-18T01:14:21;7.40;99.90
5870;DHT22;2961;47.702;9.410;2023-05-18T01:16:55;7.40;99.90
5870;DHT22;2961;47.702;9.410;2023-05-18T01:19:42;7.30;99.90
5870;DHT22;2961;47.702;9.410;2023-05-18T01:22:25;7.30;99.90
5870;DHT22;2961;47.702;9.410;2023-05-18T01:25:01;7.20;99.90
5870;DHT22;2961;47.702;9.410;2023-05-18T01:27:31;7.20;99.90
5870;DHT22;2961;47.702;9.410;2023-05-18T01:30:02;7.20;99.90
5870;DHT22;2961;47.702;9.410;2023-05-18T01:32:29;7.00;99.90
5870;DHT22;2961;47.702;9.410;2023-05-18T01:34:56;7.00;99.90
5870;DHT22;2961;47.702;9.410;2023-05-18T01:37:23;7.00;99.90
5870;DHT22;2961;47.702;9.410;2023-05-18T01:39:50;6.90;99.90
5870;DHT22;2961;47.702;9.410;2023-05-18T01:42:20;6.90;99.90
5870;DHT22;2961;47.702;9.410;2023-05-18T01:44:53;6.90;99.90
5870;DHT22;2961;47.702;9.410;2023-05-18T01:47:22;6.90;99.90
5870;DHT22;2961;47.702;9.410;2023-05-18T01:49:53;6.90;99.90
5870;DHT22;2961;47.702;9.410;2023-05-18T01:52:24;7.00;99.90
5870;DHT22;2961;47.702;9.410;2023-05-18T01:54:56;7.00;99.90
5870;DHT22;2961;47.702;9.410;2023-05-18T01:57:26;6.90;99.90
5870;DHT22;2961;47.702;9.410;2023-05-18T01:59:57;6.90;99.90
5870;DHT22;2961;47.702;9.410;2023-05-18T02:02:26;6.90;99.90
5870;DHT22;2961;47.702;9.410;2023-05-18T02:04:52;6.90;99.90
5870;DHT22;2961;47.702;9.410;2023-05-18T02:07:19;6.90;99.90
5870;DHT22;2961;47.702;9.410;2023-05-18T02:09:46;6.90;99.90
5870;DHT22;2961;47.702;9.410;2023-05-18T02:12:13;6.90;99.90
5870;DHT22;2961;47.702;9.410;2023-05-18T02:14:40;6.90;99.90
5870;DHT22;2961;47.702;9.410;2023-05-18T02:17:08;6.90;99.90
5870;DHT22;2961;47.702;9.410;2023-05-18T02:19:36;6.80;99.90
5870;DHT22;2961;47.702;9.410;2023-05-18T02:22:03;6.80;99.90
5870;DHT22;2961;47.702;9.410;2023-05-18T02:24:31;6.80;99.90
5870;DHT22;2961;47.702;9.410;2023-05-18T02:26:58;6.70;99.90
5870;DHT22;2961;47.702;9.410;2023-05-18T02:29:25;6.80;99.90
5870;DHT22;2961;47.702;9.410;2023-05-18T02:31:52;6.80;99.90
5870;DHT22;2961;47.702;9.410;2023-05-18T02:34:20;6.80;99.90
5870;DHT22;2961;47.702;9.410;2023-05-18T02:36:49;6.70;99.90
5870;DHT22;2961;47.702;9.410;2023-05-18T02:39:15;6.70;99.90
5870;DHT22;2961;47.702;9.410;2023-05-18T02:41:42;6.70;99.90
5870;DHT22;2961;47.702;9.410;2023-05-18T02:44:09;6.70;99.90
5870;DHT22;2961;47.702;9.410;2023-05-18T02:46:36;6.70;99.90
5870;DHT22;2961;47.702;9.410;2023-05-18T02:49:03;6.60;99.90
5870;DHT22;2961;47.702;9.410;2023-05-18T02:51:31;6.70;99.90
5870;DHT22;2961;47.702;9.410;2023-05-18T02:53:58;6.60;99.90
5870;DHT22;2961;47.702;9.410;2023-05-18T02:56:25;6.60;99.90
5870;DHT22;2961;47.702;9.410;2023-05-18T02:58:53;6.70;99.90
5870;DHT22;2961;47.702;9.410;2023-05-18T03:01:22;6.70;99.90
5870;DHT22;2961;47.702;9.410;2023-05-18T03:03:51;6.70;99.90
5870;DHT22;2961;47.702;9.410;2023-05-18T03:06:18;6.60;99.90
5870;DHT22;2961;47.702;9.410;2023-05-18T03:08:49;6.60;99.90
5870;DHT22;2961;47.702;9.410;2023-05-18T03:11:18;6.60;99.90
5870;DHT22;2961;47.702;9.410;2023-05-18T03:13:46;6.70;99.90
5870;DHT22;2961;47.702;9.410;2023-05-18T03:16:12;6.60;99.90
5870;DHT22;2961;47.702;9.410;2023-05-18T03:18:39;6.60;99.90
5870;DHT22;2961;47.702;9.410;2023-05-18T03:21:06;6.60;99.90
5870;DHT22;2961;47.702;9.410;2023-05-18T03:23:33;6.60;99.90
5870;DHT22;2961;47.702;9.410;2023-05-18T03:26:01;6.60;99.90
5870;DHT22;2961;47.702;9.410;2023-05-18T03:28:35;6.70;99.90
5870;DHT22;2961;47.702;9.410;2023-05-18T03:31:01;6.70;99.90
5870;DHT22;2961;47.702;9.410;2023-05-18T03:33:28;6.60;99.90
5870;DHT22;2961;47.702;9.410;2023-05-18T03:35:55;6.70;99.90
5870;DHT22;2961;47.702;9.410;2023-05-18T03:38:22;6.70;99.90
5870;DHT22;2961;47.702;9.410;2023-05-18T03:40:49;6.70;99.90
5870;DHT22;2961;47.702;9.410;2023-05-18T03:43:17;6.70;99.90
5870;DHT22;2961;47.702;9.410;2023-05-18T03:45:44;6.70;99.90
5870;DHT22;2961;47.702;9.410;2023-05-18T03:48:10;6.70;99.90
5870;DHT22;2961;47.702;9.410;2023-05-18T03:50:37;6.70;99.90
5870;DHT22;2961;47.702;9.410;2023-05-18T03:53:05;6.70;99.90
5870;DHT22;2961;47.702;9.410;2023-05-18T03:55:31;6.60;99.90
5870;DHT22;2961;47.702;9.410;2023-05-18T03:57:58;6.60;99.90
5870;DHT22;2961;47.702;9.410;2023-05-18T04:00:27;6.60;99.90
5870;DHT22;2961;47.702;9.410;2023-05-18T04:02:54;6.60;99.90
5870;DHT22;2961;47.702;9.410;2023-05-18T04:05:21;6.60;99.90
5870;DHT22;2961;47.702;9.410;2023-05-18T04:07:48;6.60;99.90
5870;DHT22;2961;47.702;9.410;2023-05-18T04:10:16;6.60;99.90
5870;DHT22;2961;47.702;9.410;2023-05-18T04:12:44;6.70;99.90
5870;DHT22;2961;47.702;9.410;2023-05-18T04:15:11;6.70;99.90
5870;DHT22;2961;47.702;9.410;2023-05-18T04:17:40;6.70;99.90
5870;DHT22;2961;47.702;9.410;2023-05-18T04:20:10;6.70;99.90
5870;DHT22;2961;47.702;9.410;2023-05-18T04:22:42;6.70;99.90
5870;DHT22;2961;47.702;9.410;2023-05-18T04:25:11;6.80;99.90
5870;DHT22;2961;47.702;9.410;2023-05-18T04:27:38;6.80;99.90
5870;DHT22;2961;47.702;9.410;2023-05-18T04:30:07;6.80;99.90
5870;DHT22;2961;47.702;9.410;2023-05-18T04:32:35;6.80;99.90
5870;DHT22;2961;47.702;9.410;2023-05-18T04:35:04;6.80;99.90
5870;DHT22;2961;47.702;9.410;2023-05-18T04:37:31;6.90;99.90
5870;DHT22;2961;47.702;9.410;2023-05-18T04:39:58;7.00;99.90
5870;DHT22;2961;47.702;9.410;2023-05-18T04:42:27;7.10;99.90
5870;DHT22;2961;47.702;9.410;2023-05-18T04:44:53;7.10;99.90
5870;DHT22;2961;47.702;9.410;2023-05-18T04:47:20;7.20;99.90
5870;DHT22;2961;47.702;9.410;2023-05-18T04:49:48;7.20;99.90
5870;DHT22;2961;47.702;9.410;2023-05-18T04:52:18;7.30;99.90
5870;DHT22;2961;47.702;9.410;2023-05-18T04:54:45;7.40;99.90
5870;DHT22;2961;47.702;9.410;2023-05-18T04:57:12;7.40;99.90
5870;DHT22;2961;47.702;9.410;2023-05-18T04:59:39;7.50;99.90
5870;DHT22;2961;47.702;9.410;2023-05-18T05:02:07;7.60;99.90
5870;DHT22;2961;47.702;9.410;2023-05-18T05:04:33;7.90;99.90
5870;DHT22;2961;47.702;9.410;2023-05-18T05:07:00;8.20;99.90
5870;DHT22;2961;47.702;9.410;2023-05-18T05:09:28;8.40;99.90
5870;DHT22;2961;47.702;9.410;2023-05-18T05:11:55;8.50;99.90
5870;DHT22;2961;47.702;9.410;2023-05-18T05:14:22;8.50;99.90
5870;DHT22;2961;47.702;9.410;2023-05-18T05:16:49;8.50;99.90
5870;DHT22;2961;47.702;9.410;2023-05-18T05:19:15;8.80;99.90
5870;DHT22;2961;47.702;9.410;2023-05-18T05:21:42;9.40;99.90
5870;DHT22;2961;47.702;9.410;2023-05-18T05:24:09;10.00;99.90
5870;DHT22;2961;47.702;9.410;2023-05-18T05:26:37;10.60;99.90
5870;DHT22;2961;47.702;9.410;2023-05-18T05:29:04;11.10;99.90
5870;DHT22;2961;47.702;9.410;2023-05-18T05:31:31;11.70;99.90
5870;DHT22;2961;47.702;9.410;2023-05-18T05:33:59;12.60;99.90
5870;DHT22;2961;47.702;9.410;2023-05-18T05:36:25;12.80;99.90
5870;DHT22;2961;47.702;9.410;2023-05-18T05:38:52;13.10;99.90
5870;DHT22;2961;47.702;9.410;2023-05-18T05:41:19;13.30;99.90
5870;DHT22;2961;47.702;9.410;2023-05-18T05:43:48;13.20;99.90
5870;DHT22;2961;47.702;9.410;2023-05-18T05:46:15;13.40;99.70
5870;DHT22;2961;47.702;9.410;2023-05-18T05:48:42;13.00;99.90
5870;DHT22;2961;47.702;9.410;2023-05-18T05:51:09;12.60;99.90
5870;DHT22;2961;47.702;9.410;2023-05-18T05:53:36;12.90;99.90
5870;DHT22;2961;47.702;9.410;2023-05-18T05:56:03;13.40;99.70
5870;DHT22;2961;47.702;9.410;2023-05-18T05:58:32;13.40;99.30
5870;DHT22;2961;47.702;9.410;2023-05-18T06:01:00;13.80;99.00
5870;DHT22;2961;47.702;9.410;2023-05-18T06:03:27;14.00;98.00
5870;DHT22;2961;47.702;9.410;2023-05-18T06:05:55;14.40;97.50
5870;DHT22;2961;47.702;9.410;2023-05-18T06:08:22;14.80;96.30
5870;DHT22;2961;47.702;9.410;2023-05-18T06:10:49;15.00;95.40
5870;DHT22;2961;47.702;9.410;2023-05-18T06:13:16;14.50;96.20
5870;DHT22;2961;47.702;9.410;2023-05-18T06:15:43;14.30;96.80
5870;DHT22;2961;47.702;9.410;2023-05-18T06:18:11;14.50;96.80
5870;DHT22;2961;47.702;9.410;2023-05-18T06:20:38;15.10;95.80
5870;DHT22;2961;47.702;9.410;2023-05-18T06:23:05;14.50;96.50
5870;DHT22;2961;47.702;9.410;2023-05-18T06:25:32;14.70;96.40
5870;DHT22;2961;47.702;9.410;2023-05-18T06:27:59;14.80;96.40
5870;DHT22;2961;47.702;9.410;2023-05-18T06:30:26;14.70;96.40
5870;DHT22;2961;47.702;9.410;2023-05-18T06:32:53;15.10;96.50
5870;DHT22;2961;47.702;9.410;2023-05-18T06:35:21;15.30;96.10
5870;DHT22;2961;47.702;9.410;2023-05-18T06:37:49;15.20;95.30
5870;DHT22;2961;47.702;9.410;2023-05-18T06:40:16;14.80;97.20
5870;DHT22;2961;47.702;9.410;2023-05-18T06:42:43;15.30;97.50
5870;DHT22;2961;47.702;9.410;2023-05-18T06:45:10;15.80;94.90
5870;DHT22;2961;47.702;9.410;2023-05-18T06:47:37;16.20;95.10
5870;DHT22;2961;47.702;9.410;2023-05-18T06:50:05;16.10;93.70
5870;DHT22;2961;47.702;9.410;2023-05-18T06:52:33;15.70;94.30
5870;DHT22;2961;47.702;9.410;2023-05-18T06:55:00;15.20;95.20
5870;DHT22;2961;47.702;9.410;2023-05-18T06:57:27;14.80;96.00
5870;DHT22;2961;47.702;9.410;2023-05-18T06:59:53;15.30;96.70
5870;DHT22;2961;47.702;9.410;2023-05-18T07:02:20;15.60;95.50
5870;DHT22;2961;47.702;9.410;2023-05-18T07:04:48;15.60;95.30
5870;DHT22;2961;47.702;9.410;2023-05-18T07:07:15;15.60;95.70
5870;DHT22;2961;47.702;9.410;2023-05-18T07:09:43;15.70;97.70
5870;DHT22;2961;47.702;9.410;2023-05-18T07:12:10;16.10;95.50
5870;DHT22;2961;47.702;9.410;2023-05-18T07:14:37;16.20;94.80
5870;DHT22;2961;47.702;9.410;2023-05-18T07:17:04;16.30;97.20
5870;DHT22;2961;47.702;9.410;2023-05-18T07:19:32;16.70;94.30
5870;DHT22;2961;47.702;9.410;2023-05-18T07:21:59;16.80;93.60
5870;DHT22;2961;47.702;9.410;2023-05-18T07:24:26;16.90;94.50
5870;DHT22;2961;47.702;9.410;2023-05-18T07:26:55;17.30;92.70
5870;DHT22;2961;47.702;9.410;2023-05-18T07:29:22;17.40;92.00
5870;DHT22;2961;47.702;9.410;2023-05-18T07:31:49;17.40;92.60
5870;DHT22;2961;47.702;9.410;2023-05-18T07:34:16;17.10;92.70
5870;DHT22;2961;47.702;9.410;2023-05-18T07:36:42;17.50;93.50
5870;DHT22;2961;47.702;9.410;2023-05-18T07:39:09;18.30;91.80
5870;DHT22;2961;47.702;9.410;2023-05-18T07:41:43;18.30;90.40
5870;DHT22;2961;47.702;9.410;2023-05-18T07:44:11;18.00;90.40
5870;DHT22;2961;47.702;9.410;2023-05-18T07:46:38;18.00;91.20
5870;DHT22;2961;47.702;9.410;2023-05-18T07:49:05;17.90;90.90
5870;DHT22;2961;47.702;9.410;2023-05-18T07:51:31;17.90;91.30
5870;DHT22;2961;47.702;9.410;2023-05-18T07:53:58;17.90;90.00
5870;DHT22;2961;47.702;9.410;2023-05-18T07:56:25;17.60;90.10
5870;DHT22;2961;47.702;9.410;2023-05-18T07:58:52;16.90;91.40
5870;DHT22;2961;47.702;9.410;2023-05-18T08:01:20;16.90;91.30
5870;DHT22;2961;47.702;9.410;2023-05-18T08:03:51;16.70;91.20
5870;DHT22;2961;47.702;9.410;2023-05-18T08:06:18;16.80;93.00
5870;DHT22;2961;47.702;9.410;2023-05-18T08:08:45;17.50;91.20
5870;DHT22;2961;47.702;9.410;2023-05-18T08:11:12;17.90;89.10
5870;DHT22;2961;47.702;9.410;2023-05-18T08:13:39;17.90;90.70
5870;DHT22;2961;47.702;9.410;2023-05-18T08:16:06;18.30;91.10
5870;DHT22;2961;47.702;9.410;2023-05-18T08:18:34;18.40;87.20
5870;DHT22;2961;47.702;9.410;2023-05-18T08:21:01;18.00;90.30
5870;DHT22;2961;47.702;9.410;2023-05-18T08:23:28;18.00;89.50
5870;DHT22;2961;47.702;9.410;2023-05-18T08:25:55;18.00;87.90
5870;DHT22;2961;47.702;9.410;2023-05-18T08:28:24;18.00;86.90
5870;DHT22;2961;47.702;9.410;2023-05-18T08:38:39;17.20;90.30
5870;DHT22;2961;47.702;9.410;2023-05-18T08:41:11;17.40;88.00
5870;DHT22;2961;47.702;9.410;2023-05-18T08:43:41;16.80;88.60
5870;DHT22;2961;47.702;9.410;2023-05-18T08:46:16;16.40;90.00
5870;DHT22;2961;47.702;9.410;2023-05-18T08:48:46;16.60;90.30
5870;DHT22;2961;47.702;9.410;2023-05-18T08:51:18;16.60;91.40
5870;DHT22;2961;47.702;9.410;2023-05-18T08:53:51;16.80;90.70
5870;DHT22;2961;47.702;9.410;2023-05-18T08:56:22;16.70;89.70
5870;DHT22;2961;47.702;9.410;2023-05-18T08:58:50;16.50;90.60
5870;DHT22;2961;47.702;9.410;2023-05-18T09:01:17;16.50;89.40
5870;DHT22;2961;47.702;9.410;2023-05-18T09:03:44;16.60;90.30
5870;DHT22;2961;47.702;9.410;2023-05-18T09:06:13;16.50;90.30
5870;DHT22;2961;47.702;9.410;2023-05-18T09:08:41;16.30;89.80
5870;DHT22;2961;47.702;9.410;2023-05-18T09:11:09;16.00;90.00
5870;DHT22;2961;47.702;9.410;2023-05-18T09:13:37;16.70;91.10
5870;DHT22;2961;47.702;9.410;2023-05-18T09:16:04;17.50;89.80
5870;DHT22;2961;47.702;9.410;2023-05-18T09:18:32;17.90;86.50
5870;DHT22;2961;47.702;9.410;2023-05-18T09:20:59;18.10;83.90
5870;DHT22;2961;47.702;9.410;2023-05-18T09:23:26;18.00;84.40
5870;DHT22;2961;47.702;9.410;2023-05-18T09:25:53;17.40;85.50
5870;DHT22;2961;47.702;9.410;2023-05-18T09:28:34;17.20;86.00
5870;DHT22;2961;47.702;9.410;2023-05-18T09:31:02;17.10;85.40
5870;DHT22;2961;47.702;9.410;2023-05-18T09:33:32;16.60;85.20
5870;DHT22;2961;47.702;9.410;2023-05-18T09:35:59;16.20;90.50
5870;DHT22;2961;47.702;9.410;2023-05-18T09:38:27;16.10;87.50
5870;DHT22;2961;47.702;9.410;2023-05-18T09:40:54;16.00;87.80
5870;DHT22;2961;47.702;9.410;2023-05-18T09:43:21;15.90;88.50
5870;DHT22;2961;47.702;9.410;2023-05-18T09:45:49;15.80;88.30
5870;DHT22;2961;47.702;9.410;2023-05-18T09:48:16;15.80;87.20
5870;DHT22;2961;47.702;9.410;2023-05-18T09:50:43;15.50;87.80
5870;DHT22;2961;47.702;9.410;2023-05-18T09:53:12;15.30;88.90
5870;DHT22;2961;47.702;9.410;2023-05-18T09:55:45;15.40;91.00
5870;DHT22;2961;47.702;9.410;2023-05-18T09:58:12;15.70;90.40
5870;DHT22;2961;47.702;9.410;2023-05-18T10:00:40;15.80;87.40
5870;DHT22;2961;47.702;9.410;2023-05-18T10:03:18;16.00;88.80
5870;DHT22;2961;47.702;9.410;2023-05-18T10:05:45;16.10;90.50
5870;DHT22;2961;47.702;9.410;2023-05-18T10:08:13;16.00;85.70
5870;DHT22;2961;47.702;9.410;2023-05-18T10:10:42;15.90;86.80
5870;DHT22;2961;47.702;9.410;2023-05-18T10:13:12;15.80;85.10
5870;DHT22;2961;47.702;9.410;2023-05-18T10:15:46;15.70;85.70
5870;DHT22;2961;47.702;9.410;2023-05-18T10:18:19;15.60;85.90
5870;DHT22;2961;47.702;9.410;2023-05-18T10:20:47;15.70;86.80
5870;DHT22;2961;47.702;9.410;2023-05-18T10:23:14;15.80;86.30
5870;DHT22;2961;47.702;9.410;2023-05-18T10:25:44;15.70;88.40
5870;DHT22;2961;47.702;9.410;2023-05-18T10:28:11;15.60;88.20
5870;DHT22;2961;47.702;9.410;2023-05-18T10:30:40;15.60;87.40
5870;DHT22;2961;47.702;9.410;2023-05-18T10:33:09;15.70;89.20
5870;DHT22;2961;47.702;9.410;2023-05-18T10:35:38;15.80;87.00
5870;DHT22;2961;47.702;9.410;2023-05-18T10:38:05;15.90;88.10
5870;DHT22;2961;47.702;9.410;2023-05-18T10:40:33;15.70;89.20
5870;DHT22;2961;47.702;9.410;2023-05-18T10:43:02;15.60;89.00
5870;DHT22;2961;47.702;9.410;2023-05-18T10:45:32;15.60;87.00
5870;DHT22;2961;47.702;9.410;2023-05-18T10:47:59;15.60;88.20
5870;DHT22;2961;47.702;9.410;2023-05-18T10:50:27;15.60;90.20
5870;DHT22;2961;47.702;9.410;2023-05-18T10:52:58;15.60;89.00
5870;DHT22;2961;47.702;9.410;2023-05-18T10:55:25;15.70;88.10
5870;DHT22;2961;47.702;9.410;2023-05-18T10:57:57;15.70;89.00
5870;DHT22;2961;47.702;9.410;2023-05-18T11:00:28;15.80;90.50
5870;DHT22;2961;47.702;9.410;2023-05-18T11:02:56;15.80;89.60
5870;DHT22;2961;47.702;9.410;2023-05-18T11:05:24;16.00;88.60
5870;DHT22;2961;47.702;9.410;2023-05-18T11:08:01;16.10;86.30
5870;DHT22;2961;47.702;9.410;2023-05-18T11:10:34;16.10;89.10
5870;DHT22;2961;47.702;9.410;2023-05-18T11:13:01;16.30;87.50
5870;DHT22;2961;47.702;9.410;2023-05-18T11:16:03;16.40;87.10
5870;DHT22;2961;47.702;9.410;2023-05-18T11:18:38;16.50;90.30
5870;DHT22;2961;47.702;9.410;2023-05-18T11:21:30;16.80;87.90
5870;DHT22;2961;47.702;9.410;2023-05-18T11:24:27;16.60;86.10
5870;DHT22;2961;47.702;9.410;2023-05-18T11:26:56;16.30;86.50
5870;DHT22;2961;47.702;9.410;2023-05-18T11:29:29;16.10;87.20
5870;DHT22;2961;47.702;9.410;2023-05-18T11:31:57;15.90;86.60
5870;DHT22;2961;47.702;9.410;2023-05-18T11:34:39;15.90;86.40
5870;DHT22;2961;47.702;9.410;2023-05-18T11:37:09;15.90;86.70
5870;DHT22;2961;47.702;9.410;2023-05-18T11:39:38;16.00;86.40
5870;DHT22;2961;47.702;9.410;2023-05-18T11:42:07;16.00;88.60
5870;DHT22;2961;47.702;9.410;2023-05-18T11:44:35;15.80;90.20
5870;DHT22;2961;47.702;9.410;2023-05-18T11:47:06;15.80;87.90
5870;DHT22;2961;47.702;9.410;2023-05-18T11:49:36;15.60;88.80
5870;DHT22;2961;47.702;9.410;2023-05-18T11:52:07;15.50;90.60
5870;DHT22;2961;47.702;9.410;2023-05-18T11:54:41;15.40;91.20
5870;DHT22;2961;47.702;9.410;2023-05-18T11:57:09;15.40;91.10
5870;DHT22;2961;47.702;9.410;2023-05-18T11:59:38;15.30;91.70
5870;DHT22;2961;47.702;9.410;2023-05-18T12:02:06;15.30;90.80
5870;DHT22;2961;47.702;9.410;2023-05-18T12:04:41;15.30;91.20
5870;DHT22;2961;47.702;9.410;2023-05-18T12:07:08;15.30;91.30
5870;DHT22;2961;47.702;9.410;2023-05-18T12:09:40;15.20;90.80
5870;DHT22;2961;47.702;9.410;2023-05-18T12:12:09;15.10;91.00
5870;DHT22;2961;47.702;9.410;2023-05-18T12:14:37;15.00;91.10
5870;DHT22;2961;47.702;9.410;2023-05-18T12:17:04;15.00;92.10
5870;DHT22;2961;47.702;9.410;2023-05-18T12:19:36;15.00;91.60
5870;DHT22;2961;47.702;9.410;2023-05-18T12:22:03;15.00;92.10
5870;DHT22;2961;47.702;9.410;2023-05-18T12:24:31;15.00;92.10
5870;DHT22;2961;47.702;9.410;2023-05-18T12:26:59;14.90;92.30
5870;DHT22;2961;47.702;9.410;2023-05-18T12:29:29;14.90;92.20
5870;DHT22;2961;47.702;9.410;2023-05-18T12:31:56;14.90;93.80
5870;DHT22;2961;47.702;9.410;2023-05-18T12:34:27;14.90;92.40
5870;DHT22;2961;47.702;9.410;2023-05-18T12:36:54;15.00;92.90
5870;DHT22;2961;47.702;9.410;2023-05-18T12:39:23;15.20;92.00
5870;DHT22;2961;47.702;9.410;2023-05-18T12:41:50;15.10;92.30
5870;DHT22;2961;47.702;9.410;2023-05-18T12:44:18;15.10;92.40
5870;DHT22;2961;47.702;9.410;2023-05-18T12:46:45;15.10;93.40
5870;DHT22;2961;47.702;9.410;2023-05-18T12:49:14;15.20;93.70
5870;DHT22;2961;47.702;9.410;2023-05-18T12:51:43;15.20;92.80
5870;DHT22;2961;47.702;9.410;2023-05-18T12:54:10;15.30;92.90
5870;DHT22;2961;47.702;9.410;2023-05-18T12:56:53;15.30;94.00
5870;DHT22;2961;47.702;9.410;2023-05-18T12:59:26;15.30;92.80
5870;DHT22;2961;47.702;9.410;2023-05-18T13:01:53;15.30;93.30
5870;DHT22;2961;47.702;9.410;2023-05-18T13:04:21;15.30;93.70
5870;DHT22;2961;47.702;9.410;2023-05-18T13:06:48;15.30;93.50
5870;DHT22;2961;47.702;9.410;2023-05-18T13:09:15;15.10;94.50
5870;DHT22;2961;47.702;9.410;2023-05-18T13:11:50;15.10;93.60
5870;DHT22;2961;47.702;9.410;2023-05-18T13:14:19;15.20;93.80
5870;DHT22;2961;47.702;9.410;2023-05-18T13:16:49;15.30;93.90
5870;DHT22;2961;47.702;9.410;2023-05-18T13:19:17;15.40;93.10
5870;DHT22;2961;47.702;9.410;2023-05-18T13:21:44;15.30;92.90
5870;DHT22;2961;47.702;9.410;2023-05-18T13:24:11;15.20;93.10
5870;DHT22;2961;47.702;9.410;2023-05-18T13:26:38;15.20;93.50
5870;DHT22;2961;47.702;9.410;2023-05-18T13:29:05;15.30;93.30
5870;DHT22;2961;47.702;9.410;2023-05-18T13:31:32;15.50;93.80
5870;DHT22;2961;47.702;9.410;2023-05-18T13:34:01;15.60;92.90
5870;DHT22;2961;47.702;9.410;2023-05-18T13:36:28;15.70;92.70
5870;DHT22;2961;47.702;9.410;2023-05-18T13:38:58;15.60;93.60
5870;DHT22;2961;47.702;9.410;2023-05-18T13:41:25;15.70;95.60
5870;DHT22;2961;47.702;9.410;2023-05-18T13:43:52;15.70;92.70
5870;DHT22;2961;47.702;9.410;2023-05-18T13:46:18;15.70;92.40
5870;DHT22;2961;47.702;9.410;2023-05-18T13:48:46;15.50;92.30
5870;DHT22;2961;47.702;9.410;2023-05-18T13:51:14;15.50;92.90
5870;DHT22;2961;47.702;9.410;2023-05-18T13:53:40;15.50;92.60
5870;DHT22;2961;47.702;9.410;2023-05-18T13:56:07;15.50;93.40
5870;DHT22;2961;47.702;9.410;2023-05-18T13:58:34;15.50;92.40
5870;DHT22;2961;47.702;9.410;2023-05-18T14:01:01;15.50;92.90
5870;DHT22;2961;47.702;9.410;2023-05-18T14:03:32;15.60;92.20
5870;DHT22;2961;47.702;9.410;2023-05-18T14:06:01;15.60;92.20
5870;DHT22;2961;47.702;9.410;2023-05-18T14:08:29;15.70;92.70
5870;DHT22;2961;47.702;9.410;2023-05-18T14:10:56;15.80;92.70
5870;DHT22;2961;47.702;9.410;2023-05-18T14:13:23;15.90;92.30
5870;DHT22;2961;47.702;9.410;2023-05-18T14:15:49;16.00;92.20
5870;DHT22;2961;47.702;9.410;2023-05-18T14:18:16;15.90;92.40
5870;DHT22;2961;47.702;9.410;2023-05-18T14:20:43;15.70;92.20
5870;DHT22;2961;47.702;9.410;2023-05-18T14:23:11;15.60;92.20
5870;DHT22;2961;47.702;9.410;2023-05-18T14:25:40;15.60;93.00
5870;DHT22;2961;47.702;9.410;2023-05-18T14:28:08;15.60;93.40
5870;DHT22;2961;47.702;9.410;2023-05-18T14:30:35;15.70;92.20
5870;DHT22;2961;47.702;9.410;2023-05-18T14:33:02;15.60;91.90
5870;DHT22;2961;47.702;9.410;2023-05-18T14:35:29;15.60;91.70
5870;DHT22;2961;47.702;9.410;2023-05-18T14:37:55;15.60;92.30
5870;DHT22;2961;47.702;9.410;2023-05-18T14:40:22;15.70;93.70
5870;DHT22;2961;47.702;9.410;2023-05-18T14:42:53;15.80;93.40
5870;DHT22;2961;47.702;9.410;2023-05-18T14:45:20;15.90;92.60
5870;DHT22;2961;47.702;9.410;2023-05-18T14:47:46;15.90;93.00
5870;DHT22;2961;47.702;9.410;2023-05-18T14:50:13;16.00;93.40
5870;DHT22;2961;47.702;9.410;2023-05-18T14:52:41;15.90;91.60
5870;DHT22;2961;47.702;9.410;2023-05-18T14:55:08;15.90;91.70
5870;DHT22;2961;47.702;9.410;2023-05-18T14:57:35;15.90;92.70
5870;DHT22;2961;47.702;9.410;2023-05-18T15:00:04;15.90;93.50
5870;DHT22;2961;47.702;9.410;2023-05-18T15:02:30;16.00;92.70
5870;DHT22;2961;47.702;9.410;2023-05-18T15:04:57;16.00;92.90
5870;DHT22;2961;47.702;9.410;2023-05-18T15:07:24;16.00;91.30
5870;DHT22;2961;47.702;9.410;2023-05-18T15:09:51;16.00;91.40
5870;DHT22;2961;47.702;9.410;2023-05-18T15:12:18;15.70;92.20
5870;DHT22;2961;47.702;9.410;2023-05-18T15:14:45;15.60;92.00
5870;DHT22;2961;47.702;9.410;2023-05-18T15:17:13;15.50;93.70
5870;DHT22;2961;47.702;9.410;2023-05-18T15:19:40;15.50;92.90
5870;DHT22;2961;47.702;9.410;2023-05-18T15:22:07;15.40;91.80
5870;DHT22;2961;47.702;9.410;2023-05-18T15:24:34;15.30;91.80
5870;DHT22;2961;47.702;9.410;2023-05-18T15:27:00;15.10;92.60
5870;DHT22;2961;47.702;9.410;2023-05-18T15:29:28;14.90;93.20
5870;DHT22;2961;47.702;9.410;2023-05-18T15:31:55;14.90;93.50
5870;DHT22;2961;47.702;9.410;2023-05-18T15:34:23;14.90;93.10
5870;DHT22;2961;47.702;9.410;2023-05-18T15:36:50;15.00;92.60
5870;DHT22;2961;47.702;9.410;2023-05-18T15:39:17;15.00;93.80
5870;DHT22;2961;47.702;9.410;2023-05-18T15:41:44;15.10;93.20
5870;DHT22;2961;47.702;9.410;2023-05-18T15:44:17;15.10;93.60
5870;DHT22;2961;47.702;9.410;2023-05-18T15:46:50;15.00;93.20
5870;DHT22;2961;47.702;9.410;2023-05-18T15:49:17;15.00;93.30
5870;DHT22;2961;47.702;9.410;2023-05-18T15:51:46;15.00;93.30
5870;DHT22;2961;47.702;9.410;2023-05-18T15:54:13;15.00;94.00
5870;DHT22;2961;47.702;9.410;2023-05-18T15:56:40;15.00;93.60
5870;DHT22;2961;47.702;9.410;2023-05-18T15:59:07;15.00;93.50
5870;DHT22;2961;47.702;9.410;2023-05-18T16:01:33;15.10;94.20
5870;DHT22;2961;47.702;9.410;2023-05-18T16:04:00;15.10;93.40
5870;DHT22;2961;47.702;9.410;2023-05-18T16:06:27;15.00;93.70
5870;DHT22;2961;47.702;9.410;2023-05-18T16:08:56;14.90;93.80
5870;DHT22;2961;47.702;9.410;2023-05-18T16:11:22;14.70;94.10
5870;DHT22;2961;47.702;9.410;2023-05-18T16:13:50;14.70;93.80
5870;DHT22;2961;47.702;9.410;2023-05-18T16:16:19;14.60;95.20
5870;DHT22;2961;47.702;9.410;2023-05-18T16:18:46;14.60;94.30
5870;DHT22;2961;47.702;9.410;2023-05-18T16:21:14;14.50;96.00